Time;durP1;ratioP1;P1;durP2;ratioP2;P2;SDS_P1;SDS_P2;PMS_P1;PMS_P2;Temp;Humidity;BMP_temperature;BMP_pressure;BME280_temperature;BME280_humidity;BME280_pressure;Samples;Min_cycle;Max_cycle;Signal;HPM_P1;HPM_P2
2023/01/24 00:03:01;;;;;;;25.37;11.57;;;;;;;2.10;79.26;101897.09;1815312;79;21212;-76
2023/01/24 00:06:06;;;;;;;26.20;12.85;;;;;;;2.12;79.47;101893.36;1815803;79;21715;-77
2023/01/24 00:09:13;;;;;;;25.57;10.95;;;;;;;2.17;79.30;101895.33;1816984;79;21173;-76
2023/01/24 00:12:19;;;;;;;26.40;11.18;;;;;;;2.18;79.33;101893.02;1816800;79;21774;-76
2023/01/24 00:15:24;;;;;;;29.57;11.00;;;;;;;2.14;79.69;101894.13;1816453;79;21830;-77
2023/01/24 00:18:32;;;;;;;23.65;10.53;;;;;;;2.14;79.88;101893.27;1806232;79;21182;-77
2023/01/24 00:21:39;;;;;;;19.48;10.75;;;;;;;2.20;79.85;101894.27;1802420;79;21720;-76
2023/01/24 00:24:45;;;;;;;22.95;12.80;;;;;;;2.21;79.53;101888.81;1803631;79;21142;-76
2023/01/24 00:27:45;;;;;;;17.87;9.88;;;;;;;2.16;79.91;101891.34;1802823;79;21723;-76
2023/01/24 00:30:37;;;;;;;24.43;10.23;;;;;;;2.32;79.44;101895.45;1802433;79;21204;-76
2023/01/24 00:33:23;;;;;;;26.75;11.60;;;;;;;2.20;79.67;101891.58;1801127;79;21169;-77
2023/01/24 00:36:17;;;;;;;23.65;11.20;;;;;;;2.24;79.45;101889.97;1801008;79;21208;-77
2023/01/24 00:39:02;;;;;;;20.72;10.82;;;;;;;2.27;78.95;101892.52;1802528;79;21731;-77
2023/01/24 00:41:55;;;;;;;22.25;9.38;;;;;;;2.37;78.61;101893.36;1802550;79;21182;-76
2023/01/24 00:44:41;;;;;;;27.67;12.13;;;;;;;2.43;78.64;101893.00;1802735;79;21182;-76
2023/01/24 00:47:34;;;;;;;30.05;10.60;;;;;;;2.35;78.51;101892.07;1802348;79;21217;-76
2023/01/24 00:50:39;;;;;;;18.32;9.30;;;;;;;2.27;78.50;101888.46;1802741;79;21178;-77
2023/01/24 00:53:45;;;;;;;24.70;9.75;;;;;;;2.24;78.54;101889.97;1803691;79;21134;-77
2023/01/24 00:56:50;;;;;;;24.72;10.65;;;;;;;2.38;78.30;101888.34;1801749;79;21209;-77
2023/01/24 00:59:57;;;;;;;18.42;9.80;;;;;;;2.38;78.10;101886.52;1802453;79;21533;-75
2023/01/24 01:03:03;;;;;;;32.67;10.40;;;;;;;2.40;77.74;101883.71;1801961;79;22494;-76
2023/01/24 01:06:11;;;;;;;32.53;10.40;;;;;;;2.34;77.46;101891.69;1801209;79;21212;-76
2023/01/24 01:09:17;;;;;;;24.77;10.20;;;;;;;2.41;77.22;101889.53;1802664;79;21170;-76
2023/01/24 01:12:22;;;;;;;35.80;9.83;;;;;;;2.33;77.22;101889.08;1802590;79;21162;-77
2023/01/24 01:15:29;;;;;;;40.45;11.35;;;;;;;2.39;77.33;101892.78;1802455;79;21169;-77
2023/01/24 01:18:36;;;;;;;28.23;9.33;;;;;;;2.42;77.10;101895.32;1804877;78;21208;-76
2023/01/24 01:21:44;;;;;;;24.30;10.35;;;;;;;2.46;76.68;101894.20;1816833;79;21193;-77
2023/01/24 01:24:51;;;;;;;30.17;10.00;;;;;;;2.46;76.29;101895.55;1816883;79;21166;-76
2023/01/24 01:27:56;;;;;;;34.75;11.28;;;;;;;2.57;76.05;101891.75;1815576;79;21165;-77
2023/01/24 01:31:02;;;;;;;35.68;10.30;;;;;;;2.49;75.95;101889.95;1817166;79;21180;-76
2023/01/24 01:34:08;;;;;;;21.00;9.83;;;;;;;2.36;76.23;101891.63;1815824;79;21201;-77
2023/01/24 01:37:14;;;;;;;24.47;9.43;;;;;;;2.37;76.25;101895.58;1816232;79;21768;-77
2023/01/24 01:40:21;;;;;;;21.35;10.35;;;;;;;2.39;76.02;101896.83;1815392;79;21227;-76
2023/01/24 01:43:29;;;;;;;32.42;10.25;;;;;;;2.35;76.33;101893.90;1815237;79;21177;-77
2023/01/24 01:46:40;;;;;;;24.82;11.10;;;;;;;2.21;76.91;101894.66;1816926;79;21838;-77
2023/01/24 01:49:47;;;;;;;26.62;10.35;;;;;;;2.32;76.64;101895.45;1815270;78;21177;-78
2023/01/24 01:52:54;;;;;;;27.93;11.40;;;;;;;2.26;76.79;101898.88;1816792;79;21172;-76
2023/01/24 01:56:04;;;;;;;28.27;10.48;;;;;;;2.30;76.79;101890.11;1816636;79;21173;-77
2023/01/24 01:59:23;;;;;;;33.40;10.63;;;;;;;2.45;76.26;101901.43;1815292;79;21180;-77
2023/01/24 02:02:29;;;;;;;21.33;9.85;;;;;;;2.33;76.31;101894.48;1816818;79;21166;-76
2023/01/24 02:05:34;;;;;;;27.42;12.25;;;;;;;2.35;76.34;101895.25;1816752;79;21220;-76
2023/01/24 02:08:41;;;;;;;22.58;10.32;;;;;;;2.28;76.68;101892.90;1815616;79;21170;-78
2023/01/24 02:11:47;;;;;;;21.35;10.15;;;;;;;2.35;76.17;101899.30;1816779;79;21188;-76
2023/01/24 02:18:22;;;;;;;27.52;10.85;;;;;;;2.28;76.21;101906.41;1815682;79;21252;-77
2023/01/24 02:21:28;;;;;;;28.90;11.12;;;;;;;2.21;76.81;101900.06;1815431;78;21779;-77
2023/01/24 02:24:41;;;;;;;18.77;9.90;;;;;;;2.30;76.68;101902.26;1816702;79;21172;-77
2023/01/24 02:27:47;;;;;;;26.05;10.30;;;;;;;2.72;75.40;101901.69;1816131;79;22538;-76
2023/01/24 02:30:54;;;;;;;24.07;10.38;;;;;;;2.63;75.24;101898.15;1816835;79;21194;-76
2023/01/24 02:34:00;;;;;;;29.40;11.05;;;;;;;2.41;76.04;101901.20;1816510;79;21316;-76
2023/01/24 02:37:08;;;;;;;30.45;11.83;;;;;;;2.35;76.09;101904.22;1816869;79;21170;-76
2023/01/24 02:40:16;;;;;;;23.22;11.57;;;;;;;2.35;76.41;101897.95;1816988;79;22444;-76
2023/01/24 02:43:22;;;;;;;24.15;10.63;;;;;;;2.35;76.10;101895.25;1816670;79;21150;-77
2023/01/24 02:46:28;;;;;;;30.75;11.03;;;;;;;2.28;76.09;101899.65;1815372;79;21495;-77
2023/01/24 02:49:34;;;;;;;22.13;10.32;;;;;;;2.22;76.10;101897.78;1815622;79;21767;-76
2023/01/24 02:59:16;;;;;;;24.00;11.53;;;;;;;1.86;77.74;101904.20;1815508;79;21212;-78
2023/01/24 03:02:22;;;;;;;20.50;10.05;;;;;;;1.81;77.56;101896.83;1816938;79;21729;-79
2023/01/24 03:05:21;;;;;;;30.90;12.23;;;;;;;1.68;78.08;101891.20;1816175;79;21192;-76
2023/01/24 03:08:26;;;;;;;28.38;11.70;;;;;;;1.68;78.08;101891.20;1816149;79;21209;-76
2023/01/24 03:11:35;;;;;;;31.10;13.10;;;;;;;1.69;78.09;101888.02;1817625;79;21185;-77
2023/01/24 03:35:09;;;;;;;28.85;10.30;;;;;;;1.57;77.03;101881.45;1816408;79;21264;-77
2023/01/24 03:41:39;;;;;;;24.23;11.57;;;;;;;1.50;77.49;101884.93;1816772;79;21216;-76
2023/01/24 03:44:45;;;;;;;24.43;10.05;;;;;;;1.47;77.23;101882.41;1815267;79;21197;-77
2023/01/24 03:48:02;;;;;;;23.80;10.15;;;;;;;1.41;77.16;101886.79;1815234;79;21193;-77
2023/01/24 03:54:29;;;;;;;26.97;10.00;;;;;;;1.33;76.87;101887.66;1816739;79;21169;-76
2023/01/24 03:57:36;;;;;;;28.17;10.23;;;;;;;1.21;77.09;101890.48;1816983;79;21189;-76
2023/01/24 04:00:41;;;;;;;38.30;9.70;;;;;;;1.23;76.94;101893.98;1817317;79;21196;-76
2023/01/24 04:03:50;;;;;;;34.67;10.35;;;;;;;1.35;76.56;101893.82;1815432;78;21176;-76
2023/01/24 04:06:55;;;;;;;18.23;8.90;;;;;;;1.31;76.05;101896.27;1816432;79;21247;-77
2023/01/24 04:10:03;;;;;;;23.70;9.70;;;;;;;1.32;75.94;101892.66;1815987;79;21149;-77
2023/01/24 04:13:10;;;;;;;22.17;8.20;;;;;;;1.33;75.80;101904.30;1816896;79;21192;-76
2023/01/24 04:16:17;;;;;;;30.90;11.12;;;;;;;1.31;75.70;101905.70;1816707;79;21181;-77
2023/01/24 04:19:34;;;;;;;31.10;8.03;;;;;;;1.50;75.08;101906.98;1816330;79;21208;-76
2023/01/24 04:22:40;;;;;;;23.45;9.18;;;;;;;1.50;74.51;101914.59;1815466;79;21552;-76
2023/01/24 04:25:48;;;;;;;30.45;8.80;;;;;;;1.62;72.96;101913.11;1816711;79;21153;-77
2023/01/24 04:28:55;;;;;;;35.20;9.08;;;;;;;1.64;72.86;101923.33;1816406;79;21153;-76
2023/01/24 04:32:00;;;;;;;31.05;8.40;;;;;;;1.77;71.89;101918.17;1816798;79;21173;-77
2023/01/24 04:35:15;;;;;;;32.13;7.47;;;;;;;1.80;71.38;101926.12;1816908;79;21157;-76
2023/01/24 04:38:23;;;;;;;23.62;7.78;;;;;;;1.82;70.97;101931.42;1816968;79;21144;-77
2023/01/24 04:41:32;;;;;;;21.48;7.97;;;;;;;1.62;70.83;101922.55;1817090;79;21173;-77
2023/01/24 04:44:37;;;;;;;24.87;7.95;;;;;;;1.61;71.27;101928.91;1816663;79;21727;-76
2023/01/24 04:47:42;;;;;;;24.60;9.70;;;;;;;1.76;70.41;101929.92;1816863;79;21240;-76
2023/01/24 04:50:48;;;;;;;19.70;8.63;;;;;;;1.71;70.08;101929.30;1815544;79;21483;-76
2023/01/24 04:53:55;;;;;;;18.00;8.30;;;;;;;1.77;69.86;101935.23;1815192;79;21181;-77
2023/01/24 04:57:01;;;;;;;37.23;8.73;;;;;;;1.71;70.38;101928.81;1816858;79;21208;-77
2023/01/24 05:00:08;;;;;;;23.57;8.80;;;;;;;1.69;70.22;101929.83;1816111;79;21220;-76
2023/01/24 05:03:08;;;;;;;27.52;12.30;;;;;;;1.67;69.80;101931.27;1815534;78;21165;-77
2023/01/24 05:06:02;;;;;;;26.68;9.33;;;;;;;1.63;69.30;101930.16;1816641;79;21206;-77
2023/01/24 05:09:09;;;;;;;29.40;13.18;;;;;;;1.49;69.83;101934.91;1815411;79;21677;-77
2023/01/24 05:12:18;;;;;;;24.73;9.13;;;;;;;1.40;69.73;101934.90;1817199;79;21272;-78
2023/01/24 05:15:26;;;;;;;34.95;9.45;;;;;;;1.58;69.94;101934.92;1816983;79;21161;-79
2023/01/24 05:18:33;;;;;;;23.47;9.78;;;;;;;1.64;70.03;101936.81;1816986;79;21165;-78
2023/01/24 05:21:40;;;;;;;25.35;9.55;;;;;;;1.60;70.24;101937.95;1816635;79;22188;-78
2023/01/24 05:24:46;;;;;;;39.38;14.10;;;;;;;1.53;70.31;101944.12;1813841;79;21743;-77
2023/01/24 05:27:52;;;;;;;21.42;8.78;;;;;;;1.74;69.57;101943.50;1816990;79;21130;-76
2023/01/24 05:31:00;;;;;;;21.45;8.15;;;;;;;1.77;69.50;101940.62;1815676;79;21184;-76
2023/01/24 05:34:05;;;;;;;24.55;8.03;;;;;;;1.71;70.20;101942.78;1813838;79;21209;-76
2023/01/24 05:37:11;;;;;;;36.98;9.13;;;;;;;1.88;70.20;101954.02;1795169;79;21243;-77
2023/01/24 05:40:19;;;;;;;26.82;13.93;;;;;;;1.79;70.54;101948.18;1816411;79;21209;-77
2023/01/24 05:43:26;;;;;;;25.00;9.93;;;;;;;1.73;70.94;101951.17;1816862;79;21185;-76
2023/01/24 05:46:32;;;;;;;24.30;9.30;;;;;;;1.66;70.95;101953.81;1816635;79;21177;-77
2023/01/24 05:49:40;;;;;;;26.27;8.78;;;;;;;1.71;71.36;101964.36;1810216;79;21161;-77
2023/01/24 05:52:47;;;;;;;31.23;8.73;;;;;;;1.62;71.02;101958.96;1805500;77;21830;-78
2023/01/24 05:55:53;;;;;;;33.90;11.75;;;;;;;1.64;70.90;101958.39;1803286;77;21152;-77
2023/01/24 05:58:52;;;;;;;21.50;9.75;;;;;;;1.59;70.40;101964.50;1803408;79;21169;-79
2023/01/24 06:01:45;;;;;;;40.43;12.40;;;;;;;1.51;69.47;101958.65;1810617;79;21581;-76
2023/01/24 06:04:50;;;;;;;;;;;;;;;1.49;68.89;101961.87;1792394;77;21730;-77
2023/01/24 06:07:57;;;;;;;17.45;8.98;;;;;;;1.37;69.65;101959.34;1792864;77;20216;-76
2023/01/24 06:11:02;;;;;;;19.92;10.15;;;;;;;1.39;70.85;101966.00;1783198;80;21180;-76
2023/01/24 06:14:08;;;;;;;21.42;9.68;;;;;;;1.30;71.71;101969.16;1783572;80;21308;-77
2023/01/24 06:17:14;;;;;;;25.80;9.60;;;;;;;1.32;72.18;101968.59;1798419;79;21767;-76
2023/01/24 06:20:21;;;;;;;29.32;10.00;;;;;;;1.23;72.72;101975.34;1798671;79;21886;-77
2023/01/24 06:23:35;;;;;;;27.20;10.58;;;;;;;1.38;72.76;101975.05;1795833;78;185781;-77
2023/01/24 06:26:42;;;;;;;35.58;19.10;;;;;;;1.35;72.50;101984.14;1776175;79;21203;-78
2023/01/24 06:29:48;;;;;;;35.00;11.83;;;;;;;1.34;72.24;101987.80;1770343;79;21739;-77
2023/01/24 06:33:16;;;;;;;19.98;9.45;;;;;;;1.31;71.78;101985.72;1768885;79;21148;-77
2023/01/24 06:37:12;;;;;;;32.58;11.70;;;;;;;1.19;71.67;101980.00;1772522;79;21172;-76
2023/01/24 06:40:20;;;;;;;20.77;10.32;;;;;;;1.20;70.73;101990.30;1787029;79;21175;-77
2023/01/24 06:43:24;;;;;;;31.05;11.53;;;;;;;1.08;70.18;101985.50;1773483;79;21166;-76
2023/01/24 06:46:30;;;;;;;45.10;13.58;;;;;;;1.04;70.29;101991.53;1773649;79;21203;-77
2023/01/24 06:49:36;;;;;;;29.67;11.15;;;;;;;1.02;70.12;101986.20;1772487;79;21247;-77
2023/01/24 06:52:42;;;;;;;36.68;13.75;;;;;;;1.17;69.18;101994.00;1781075;79;21211;-78
2023/01/24 06:55:53;;;;;;;46.75;17.70;;;;;;;0.91;69.69;101995.76;1769579;79;21235;-77
2023/01/24 06:58:58;;;;;;;44.77;13.98;;;;;;;0.90;69.83;101986.81;1784664;79;21236;-77
2023/01/24 07:02:04;;;;;;;47.78;14.23;;;;;;;0.87;70.47;101986.07;1758351;79;21171;-77
2023/01/24 07:05:09;;;;;;;51.55;18.62;;;;;;;0.84;70.61;101986.20;1782892;79;21200;-77
2023/01/24 07:08:15;;;;;;;35.75;13.85;;;;;;;0.82;70.50;101980.03;1774257;79;21183;-76
2023/01/24 07:11:22;;;;;;;63.28;16.70;;;;;;;0.63;71.21;101982.25;1733199;81;21236;-79
2023/01/24 07:14:28;;;;;;;53.95;20.08;;;;;;;0.55;71.52;101979.03;1748781;81;21219;-78
2023/01/24 07:17:34;;;;;;;38.13;15.80;;;;;;;0.42;71.90;101980.53;1729394;81;21176;-79
2023/01/24 07:20:40;;;;;;;49.35;14.05;;;;;;;0.54;72.04;101984.50;1749304;81;22454;-75
2023/01/24 07:23:46;;;;;;;42.83;19.73;;;;;;;0.53;72.33;101983.63;1717798;82;21205;-76
2023/01/24 07:26:51;;;;;;;57.30;19.25;;;;;;;0.39;72.98;101975.31;1733759;82;21234;-77
2023/01/24 07:29:57;;;;;;;54.45;24.37;;;;;;;0.18;74.05;101975.80;1715929;81;21164;-77
2023/01/24 07:33:02;;;;;;;56.10;16.25;;;;;;;0.16;74.76;101983.09;1716200;81;21207;-78
2023/01/24 07:36:07;;;;;;;39.58;15.35;;;;;;;0.30;74.58;101985.16;1717186;81;21193;-78
2023/01/24 07:39:13;;;;;;;45.67;15.48;;;;;;;0.34;74.45;101986.30;1712487;81;22574;-77
2023/01/24 07:42:20;;;;;;;44.10;16.52;;;;;;;0.25;75.01;101980.85;1726915;81;21419;-76
2023/01/24 07:45:25;;;;;;;47.88;18.48;;;;;;;0.48;74.57;101978.45;1718945;81;21260;-76
2023/01/24 07:48:30;;;;;;;45.63;18.35;;;;;;;0.53;74.43;101972.86;1712887;81;21192;-78
2023/01/24 07:51:37;;;;;;;43.58;18.85;;;;;;;0.68;74.33;101974.82;1719181;81;21185;-80
2023/01/24 07:54:43;;;;;;;65.72;19.73;;;;;;;0.60;74.43;101974.30;1718162;81;21189;-77
2023/01/24 07:57:48;;;;;;;61.18;17.10;;;;;;;0.39;75.09;101975.31;1716659;81;21172;-76
2023/01/24 08:00:54;;;;;;;45.58;17.32;;;;;;;0.39;75.89;101975.31;1707944;81;21306;-76
2023/01/24 08:04:03;;;;;;;36.17;14.63;;;;;;;0.54;76.14;101985.37;1724494;81;21511;-77
2023/01/24 08:07:41;;;;;;;48.70;15.18;;;;;;;0.45;76.75;101981.27;1709199;81;21177;-77
2023/01/24 08:10:06;;;;;;;41.70;20.00;;;;;;;0.25;77.66;101983.54;1698285;81;21204;-77
2023/01/24 08:13:11;;;;;;;52.33;21.77;;;;;;;0.52;77.46;101984.58;1706754;81;21228;-76
2023/01/24 08:16:17;;;;;;;55.65;17.98;;;;;;;0.48;77.29;101990.57;1721792;81;21240;-77
2023/01/24 08:19:22;;;;;;;49.40;13.80;;;;;;;0.40;77.73;101999.46;1722585;81;21208;-77
2023/01/24 08:22:29;;;;;;;38.20;14.05;;;;;;;0.46;78.07;101995.61;1711275;81;21200;-77
2023/01/24 08:25:38;;;;;;;50.92;21.73;;;;;;;0.60;78.13;101995.84;1721216;81;41653;-76
2023/01/24 08:28:45;;;;;;;39.13;13.72;;;;;;;0.63;78.18;101995.71;1723452;81;21199;-76
2023/01/24 08:31:50;;;;;;;40.70;11.12;;;;;;;0.73;78.44;101990.29;1725902;81;21481;-77
2023/01/24 08:34:49;;;;;;;40.30;16.93;;;;;;;0.90;78.33;101990.84;1724681;81;21211;-77
2023/01/24 08:37:55;;;;;;;39.92;15.30;;;;;;;1.04;77.69;101991.53;1733982;81;21193;-77
2023/01/24 08:41:01;;;;;;;45.85;14.75;;;;;;;1.27;76.89;101993.98;1732085;81;21608;-76
2023/01/24 08:44:08;;;;;;;55.17;13.70;;;;;;;1.19;76.68;101989.91;1729523;81;21216;-76
2023/01/24 08:47:15;;;;;;;41.55;14.80;;;;;;;1.23;76.60;101988.34;1722278;81;21933;-75
2023/01/24 08:50:20;;;;;;;46.92;12.47;;;;;;;1.15;77.21;101983.78;1725766;81;21204;-77
2023/01/24 08:53:25;;;;;;;36.25;14.50;;;;;;;1.13;77.52;101986.14;1726870;81;21275;-77
2023/01/24 08:56:33;;;;;;;52.78;20.85;;;;;;;1.27;77.21;101979.59;1726322;81;21195;-76
2023/01/24 08:59:40;;;;;;;47.17;17.82;;;;;;;1.13;77.83;101976.27;1726711;81;22194;-77
2023/01/24 09:02:46;;;;;;;47.48;16.77;;;;;;;1.13;78.09;101969.53;1724634;81;21192;-77
2023/01/24 09:05:52;;;;;;;48.05;23.35;;;;;;;1.09;78.38;101967.05;1729859;81;21196;-77
2023/01/24 09:09:00;;;;;;;42.50;19.05;;;;;;;1.02;78.83;101966.46;1744231;81;21770;-77
2023/01/24 09:12:07;;;;;;;52.08;16.70;;;;;;;1.21;78.68;101970.00;1728996;80;22478;-76
2023/01/24 09:15:20;;;;;;;46.63;17.37;;;;;;;1.04;78.83;101967.28;1739832;81;21785;-76
2023/01/24 09:18:26;;;;;;;50.58;21.12;;;;;;;0.77;80.14;101966.78;1732323;81;21244;-78
2023/01/24 09:21:32;;;;;;;49.83;21.80;;;;;;;1.04;79.91;101968.63;1722897;81;21185;-77
2023/01/24 09:24:39;;;;;;;56.37;26.15;;;;;;;1.00;80.05;101967.90;1726509;81;30376;-77
2023/01/24 09:27:45;;;;;;;54.13;25.97;;;;;;;1.01;80.21;101959.34;1719516;81;21753;-78
2023/01/24 09:30:51;;;;;;;59.33;27.07;;;;;;;0.84;81.04;101959.27;1703110;81;21181;-78
2023/01/24 09:33:57;;;;;;;61.95;21.90;;;;;;;1.11;80.55;101963.80;1709175;81;21177;-77
2023/01/24 09:37:03;;;;;;;38.70;15.58;;;;;;;1.04;79.91;101950.24;1709891;81;21192;-77
2023/01/24 09:40:10;;;;;;;56.68;15.65;;;;;;;0.82;81.47;101956.66;1708098;81;21308;-77
2023/01/24 09:43:47;;;;;;;54.13;16.48;;;;;;;0.79;81.67;101952.75;1706755;81;21839;-77
2023/01/24 09:46:55;;;;;;;73.92;18.20;;;;;;;0.74;82.00;101957.48;1709923;81;22108;-77
2023/01/24 09:50:09;;;;;;;54.83;20.90;;;;;;;0.80;82.09;101954.97;1714757;81;21220;-77
2023/01/24 09:53:26;;;;;;;55.25;19.45;;;;;;;0.71;82.24;101950.45;1715063;81;21244;-76
2023/01/24 09:56:39;;;;;;;43.28;15.30;;;;;;;0.82;82.18;101953.09;1724930;81;21215;-77
2023/01/24 09:59:52;;;;;;;60.00;17.20;;;;;;;0.92;81.88;101953.05;1712339;81;21199;-76
2023/01/24 10:02:58;;;;;;;44.95;16.35;;;;;;;1.00;81.80;101944.99;1711380;81;21201;-76
2023/01/24 10:06:06;;;;;;;50.43;17.80;;;;;;;0.93;81.49;101947.57;1723063;81;21284;-77
2023/01/24 10:09:30;;;;;;;58.83;20.95;;;;;;;0.84;81.86;101948.48;1731915;81;21247;-78
2023/01/24 10:12:53;;;;;;;53.30;21.50;;;;;;;0.69;82.30;101952.32;1712377;81;21199;-77
2023/01/24 10:16:17;;;;;;;48.45;16.30;;;;;;;0.82;81.60;101945.02;1711847;81;21217;-77
2023/01/24 10:19:43;;;;;;;48.42;15.98;;;;;;;1.05;81.61;101944.77;1712260;81;21325;-77
2023/01/24 10:23:05;;;;;;;40.12;14.33;;;;;;;1.13;80.29;101941.67;1711884;81;21219;-77
2023/01/24 10:26:45;;;;;;;66.00;18.62;;;;;;;1.03;81.30;101942.60;1691532;81;32567;-76
2023/01/24 10:29:53;;;;;;;54.40;16.60;;;;;;;1.06;81.89;101942.47;1676133;83;21256;-76
2023/01/24 10:33:02;;;;;;;48.68;18.30;;;;;;;1.14;81.13;101933.53;1714494;82;21248;-78
2023/01/24 10:36:15;;;;;;;43.20;13.03;;;;;;;1.34;80.01;101931.66;1716848;82;21211;-77
2023/01/24 10:39:22;;;;;;;48.38;16.12;;;;;;;1.34;80.10;101937.05;1716407;82;21228;-77
2023/01/24 10:42:37;;;;;;;48.90;13.75;;;;;;;1.41;79.55;101941.16;1717312;82;21919;-78
2023/01/24 10:45:57;;;;;;;61.05;20.27;;;;;;;1.35;79.54;101926.66;1717998;82;21353;-78
2023/01/24 10:49:03;;;;;;;60.38;16.10;;;;;;;1.42;79.36;101919.53;1703398;83;21309;-77
2023/01/24 10:52:28;;;;;;;52.03;17.42;;;;;;;1.08;80.25;101920.34;1708369;83;21172;-77
2023/01/24 10:55:42;;;;;;;60.12;27.67;;;;;;;1.07;80.82;101916.38;1710749;83;21188;-77
2023/01/24 10:59:14;;;;;;;45.43;20.10;;;;;;;1.10;80.74;101915.77;1705821;83;21211;-77
2023/01/24 11:02:29;;;;;;;73.52;30.80;;;;;;;1.04;80.72;101913.38;1709305;83;21188;-75
2023/01/24 11:05:57;;;;;;;72.15;18.45;;;;;;;1.14;80.53;101907.93;1707458;83;21220;-76
2023/01/24 11:09:09;;;;;;;58.70;17.73;;;;;;;1.35;79.39;101925.30;1714121;83;21220;-77
2023/01/24 11:12:20;;;;;;;59.27;17.15;;;;;;;1.36;79.54;101927.91;1704769;83;21200;-77
2023/01/24 11:15:39;;;;;;;59.83;14.47;;;;;;;1.40;79.58;101916.02;1652956;85;21208;-77
2023/01/24 11:18:46;;;;;;;56.40;15.65;;;;;;;1.40;79.66;101916.02;1713259;83;21232;-77
2023/01/24 11:22:00;;;;;;;63.30;15.70;;;;;;;1.10;80.93;101913.55;1709719;82;21514;-78
2023/01/24 11:25:08;;;;;;;73.07;16.30;;;;;;;1.34;80.35;101919.52;1713995;83;21200;-78
2023/01/24 11:28:19;;;;;;;63.83;15.53;;;;;;;1.30;80.07;101915.23;1709000;83;21283;-77
2023/01/24 11:31:27;;;;;;;;;;;;;;;1.45;79.87;101911.75;1709665;83;21213;-77
2023/01/24 11:35:04;;;;;;;54.53;15.05;;;;;;;1.38;80.11;101908.98;1711906;83;20234;-76
2023/01/24 16:43:35;;;;;;;20.48;8.88;;;;;;;1.05;96.91;101908.39;1791786;79;28202;-81
2023/01/24 16:46:41;;;;;;;15.60;7.33;;;;;;;1.14;94.84;101919.19;1753444;82;21187;-83
2023/01/24 16:49:49;;;;;;;11.63;6.45;;;;;;;1.06;92.96;101918.21;1780992;80;21216;-81
2023/01/24 16:52:55;;;;;;;23.22;12.35;;;;;;;1.15;91.84;101916.41;1781266;80;21225;-81
2023/01/24 16:56:04;;;;;;;37.25;24.15;;;;;;;0.94;92.44;101912.97;1779278;80;21174;-79
2023/01/24 16:59:03;;;;;;;21.75;13.18;;;;;;;1.15;90.18;101912.36;1735630;80;21164;-82
2023/01/24 17:02:08;;;;;;;10.95;6.05;;;;;;;1.13;88.59;101912.93;1746070;80;21208;-80
2023/01/24 17:05:14;;;;;;;13.88;6.15;;;;;;;1.19;86.96;101911.73;1757135;80;21177;-80
2023/01/24 17:08:21;;;;;;;10.20;5.78;;;;;;;1.10;86.26;101913.07;1761936;81;21181;-81
2023/01/24 17:11:27;;;;;;;9.75;5.85;;;;;;;1.01;86.27;101911.70;1761646;81;22410;-80
2023/01/24 17:14:32;;;;;;;18.05;7.97;;;;;;;0.79;87.31;101911.00;1762171;81;21873;-82
2023/01/24 17:17:41;;;;;;;18.25;8.05;;;;;;;0.61;87.35;101914.13;1761960;81;21746;-82
2023/01/24 17:20:47;;;;;;;13.72;7.87;;;;;;;0.32;87.19;101907.41;1731891;83;21212;-81
2023/01/24 17:23:53;;;;;;;11.40;7.60;;;;;;;0.41;86.97;101899.38;1752871;82;21188;-82
2023/01/24 17:26:58;;;;;;;19.37;6.78;;;;;;;0.52;87.32;101903.80;1752457;82;21278;-82
2023/01/24 17:30:04;;;;;;;14.15;6.30;;;;;;;0.55;87.31;101899.59;1721750;83;21236;-80
2023/01/24 17:33:09;;;;;;;16.35;7.90;;;;;;;0.45;87.26;101905.89;1743188;82;21215;-80
2023/01/24 17:36:17;;;;;;;14.18;7.45;;;;;;;0.44;87.73;101896.08;1713712;83;21214;-82
2023/01/24 17:39:23;;;;;;;20.17;7.25;;;;;;;0.66;87.43;101897.28;1715176;83;21202;-81
2023/01/24 17:42:29;;;;;;;13.18;6.65;;;;;;;0.76;86.58;101903.09;1714774;83;21241;-82
2023/01/24 17:45:35;;;;;;;16.05;7.58;;;;;;;0.71;86.18;101896.58;1717132;83;21194;-80
2023/01/24 17:48:42;;;;;;;20.85;8.35;;;;;;;0.71;86.30;101897.92;1734139;81;21241;-81
2023/01/24 17:51:49;;;;;;;19.55;7.15;;;;;;;0.67;86.79;101892.77;1744771;82;21188;-81
2023/01/24 17:54:57;;;;;;;13.08;7.03;;;;;;;0.72;86.08;101888.02;1702533;84;21750;-80
2023/01/24 17:58:04;;;;;;;23.12;8.20;;;;;;;0.68;85.74;101891.33;1703626;84;21278;-81
2023/01/24 18:01:14;;;;;;;13.95;7.40;;;;;;;0.72;85.57;101896.10;1704154;84;21313;-79
2023/01/24 18:04:22;;;;;;;16.55;7.33;;;;;;;0.66;85.78;101889.20;1712809;83;21201;-80
2023/01/24 18:07:29;;;;;;;18.75;8.53;;;;;;;0.73;85.23;101884.37;1721781;83;21324;-81
2023/01/24 18:10:36;;;;;;;15.43;7.67;;;;;;;0.61;85.39;101890.34;1720211;83;21273;-81
2023/01/24 18:13:43;;;;;;;18.35;6.92;;;;;;;0.68;85.29;101894.02;1720145;83;21293;-83
2023/01/24 18:16:50;;;;;;;13.45;7.28;;;;;;;0.57;85.32;101886.95;1721489;83;21206;-81
2023/01/24 18:19:57;;;;;;;11.50;6.55;;;;;;;0.58;85.26;101892.73;1721540;83;21198;-80
2023/01/24 18:23:05;;;;;;;10.00;6.50;;;;;;;0.62;85.21;101892.11;1720796;83;22162;-81
2023/01/24 18:26:12;;;;;;;15.60;7.30;;;;;;;0.47;84.84;101891.00;1721454;83;21198;-81
2023/01/24 18:29:18;;;;;;;12.07;6.80;;;;;;;0.41;85.45;101886.79;1720264;83;21253;-81
2023/01/24 18:32:24;;;;;;;15.80;6.85;;;;;;;0.40;85.33;101891.78;1720410;83;21211;-81
2023/01/24 18:35:31;;;;;;;13.30;7.50;;;;;;;0.45;85.16;101887.05;1761320;81;21236;-80
2023/01/24 18:38:38;;;;;;;21.02;7.42;;;;;;;0.57;84.43;101890.98;1763835;81;21176;-80
2023/01/24 18:41:43;;;;;;;21.27;8.80;;;;;;;0.51;84.36;101890.78;1762537;81;21243;-79
2023/01/24 18:44:52;;;;;;;11.68;7.40;;;;;;;0.46;84.64;101892.83;1762693;81;21801;-80
2023/01/24 18:47:58;;;;;;;14.15;7.45;;;;;;;0.64;83.65;101895.11;1764086;81;21731;-80
2023/01/24 18:51:03;;;;;;;14.78;7.65;;;;;;;0.65;83.30;101890.12;1764308;81;21769;-82
2023/01/24 18:54:09;;;;;;;15.30;7.40;;;;;;;0.56;83.73;101885.17;1763457;81;21228;-80
2023/01/24 18:57:16;;;;;;;17.45;7.62;;;;;;;0.58;83.29;101888.69;1764301;81;21188;-81
2023/01/24 19:00:27;;;;;;;12.47;7.72;;;;;;;0.53;83.47;101875.05;1763568;81;21247;-81
2023/01/24 19:03:35;;;;;;;13.83;7.12;;;;;;;0.48;83.92;101879.31;1765531;81;21235;-81
2023/01/24 19:06:41;;;;;;;17.73;7.53;;;;;;;0.49;83.63;101882.39;1764534;81;21188;-81
2023/01/24 19:09:49;;;;;;;10.88;7.30;;;;;;;0.38;84.20;101886.09;1764483;81;21248;-80
2023/01/24 19:12:56;;;;;;;13.20;7.28;;;;;;;0.28;84.47;101882.05;1765028;81;21263;-80
2023/01/24 19:15:56;;;;;;;;;;;;;;;0.37;84.51;101886.53;1768044;81;21148;-80
2023/01/24 19:19:01;;;;;;;15.83;7.47;;;;;;;0.38;84.65;101878.01;1765513;81;20244;-81
2023/01/24 19:22:08;;;;;;;15.70;7.80;;;;;;;0.31;84.57;101876.53;1764997;81;21240;-79
2023/01/24 19:25:13;;;;;;;16.77;7.22;;;;;;;0.32;84.31;101869.72;1763127;81;21145;-81
2023/01/24 19:28:20;;;;;;;14.33;8.48;;;;;;;0.28;84.24;101861.87;1763171;81;21188;-79
2023/01/24 19:31:25;;;;;;;26.35;11.90;;;;;;;0.28;84.45;101860.52;1764282;81;21200;-81
2023/01/24 19:34:31;;;;;;;23.95;10.75;;;;;;;0.45;84.11;101861.47;1763672;81;21263;-81
2023/01/24 19:37:36;;;;;;;33.38;13.48;;;;;;;0.41;83.94;101865.73;1765525;81;21235;-80
2023/01/24 19:40:42;;;;;;;30.08;11.57;;;;;;;0.54;83.79;101860.64;1765438;81;21196;-81
2023/01/24 19:43:49;;;;;;;23.70;12.18;;;;;;;0.60;83.27;101857.16;1764018;81;21200;-81
2023/01/24 19:46:57;;;;;;;20.45;11.12;;;;;;;0.65;83.03;101853.77;1763314;81;21366;-81
2023/01/24 19:50:03;;;;;;;17.73;10.10;;;;;;;0.75;82.33;101856.43;1765516;81;21176;-80
2023/01/24 19:53:09;;;;;;;26.25;10.65;;;;;;;0.78;82.14;101854.52;1765417;81;21180;-81
2023/01/24 19:56:16;;;;;;;25.15;12.55;;;;;;;0.58;82.11;101860.41;1765420;81;22464;-81
2023/01/24 19:59:24;;;;;;;23.55;10.55;;;;;;;0.63;82.36;101865.09;1744157;81;21271;-80
2023/01/24 20:02:30;;;;;;;27.20;9.80;;;;;;;0.54;82.56;101866.89;1765333;81;21244;-81
2023/01/24 20:05:37;;;;;;;28.05;11.75;;;;;;;0.40;82.59;101862.64;1764121;81;21200;-81
2023/01/24 20:08:44;;;;;;;24.02;10.63;;;;;;;0.59;82.06;101859.45;1765527;81;21244;-81
2023/01/24 20:11:51;;;;;;;17.52;10.80;;;;;;;0.43;82.41;101859.81;1765149;81;21232;-81